Time;durP1;ratioP1;P1;durP2;ratioP2;P2;SDS_P1;SDS_P2;PMS_P1;PMS_P2;Temp;Humidity;BMP_temperature;BMP_pressure;BME280_temperature;BME280_humidity;BME280_pressure;Samples;Min_cycle;Max_cycle;Signal;HPM_P1;HPM_P2
2021/04/23 00:01:07;;;;;;;9.20;2.72;;;3.70;80.90;;;;;;5014022;28;20068;-90
2021/04/23 00:03:47;;;;;;;10.73;3.92;;;3.70;81.90;;;;;;5036634;28;20073;-91
2021/04/23 00:06:35;;;;;;;15.30;5.10;;;3.70;84.90;;;;;;5028289;28;20191;-90
2021/04/23 00:09:04;;;;;;;12.55;4.85;;;3.60;93.10;;;;;;5021482;28;20136;-89
2021/04/23 00:11:37;;;;;;;12.73;5.05;;;3.50;95.00;;;;;;5032045;28;20119;-90
2021/04/23 00:14:06;;;;;;;11.75;5.18;;;3.30;96.10;;;;;;5034173;28;20472;-90
2021/04/23 00:16:32;;;;;;;9.50;5.18;;;3.20;99.70;;;;;;5036894;28;20059;-89
2021/04/23 00:19:00;;;;;;;18.95;5.60;;;3.20;99.00;;;;;;5018686;28;20061;-90
2021/04/23 00:21:26;;;;;;;12.50;5.07;;;3.10;99.90;;;;;;5029623;28;20113;-89
2021/04/23 00:23:53;;;;;;;12.63;4.82;;;3.00;99.90;;;;;;5017435;28;20164;-89
2021/04/23 00:26:20;;;;;;;9.52;4.75;;;2.90;99.90;;;;;;5032089;28;20060;-91
2021/04/23 00:28:49;;;;;;;12.40;4.68;;;2.90;99.90;;;;;;5038394;28;20103;-89
2021/04/23 00:31:17;;;;;;;13.80;5.07;;;2.90;99.90;;;;;;5035867;28;20113;-89
2021/04/23 00:33:44;;;;;;;22.98;6.03;;;2.90;99.90;;;;;;5032222;28;20478;-90
2021/04/23 00:36:10;;;;;;;17.58;5.25;;;2.90;99.90;;;;;;5023040;28;20151;-88
2021/04/23 00:38:38;;;;;;;9.88;4.97;;;3.00;99.90;;;;;;5039259;28;20053;-89
2021/04/23 00:41:09;;;;;;;17.75;5.55;;;2.90;99.90;;;;;;5007198;28;20456;-90
2021/04/23 00:43:40;;;;;;;17.17;5.32;;;2.90;99.90;;;;;;5026901;28;20080;-90
2021/04/23 00:46:11;;;;;;;7.63;3.60;;;2.80;99.90;;;;;;5035050;28;20105;-91
2021/04/23 00:48:45;;;;;;;10.15;4.65;;;2.80;99.90;;;;;;5033499;28;20136;-91
2021/04/23 00:51:19;;;;;;;14.15;4.47;;;2.90;99.90;;;;;;5035604;28;20056;-89
2021/04/23 00:53:50;;;;;;;12.25;4.00;;;2.80;99.90;;;;;;5018472;28;20042;-91
2021/04/23 00:56:20;;;;;;;9.75;4.00;;;2.80;99.90;;;;;;5019988;28;20133;-91
2021/04/23 00:58:50;;;;;;;11.88;4.97;;;2.80;99.90;;;;;;5032983;28;20114;-88
2021/04/23 01:01:33;;;;;;;14.27;4.55;;;2.80;99.90;;;;;;5030802;28;20042;-89
2021/04/23 01:04:01;;;;;;;19.75;5.25;;;2.70;99.90;;;;;;5006297;28;20073;-89
2021/04/23 01:06:31;;;;;;;11.52;5.07;;;2.70;99.90;;;;;;5040562;28;20101;-89
2021/04/23 01:09:04;;;;;;;11.90;4.25;;;2.60;99.90;;;;;;5030368;28;20135;-90
2021/04/23 01:11:32;;;;;;;15.40;4.00;;;2.60;99.90;;;;;;5039386;28;20099;-88
2021/04/23 01:14:01;;;;;;;13.27;3.90;;;2.70;99.90;;;;;;5028897;28;20054;-88
2021/04/23 01:16:28;;;;;;;15.45;4.38;;;2.70;99.90;;;;;;5035470;28;20077;-88
2021/04/23 01:18:56;;;;;;;14.05;4.32;;;2.70;99.90;;;;;;5012828;28;20698;-89
2021/04/23 01:21:28;;;;;;;10.60;4.72;;;2.70;99.90;;;;;;5013782;28;20088;-91
2021/04/23 01:23:57;;;;;;;12.85;5.00;;;2.60;99.90;;;;;;5028065;28;20143;-90
2021/04/23 01:26:30;;;;;;;11.63;4.68;;;2.50;99.90;;;;;;5020403;28;20077;-90
2021/04/23 01:29:01;;;;;;;12.00;4.03;;;2.40;99.90;;;;;;5032550;28;20096;-90
2021/04/23 01:31:33;;;;;;;16.50;5.70;;;2.30;99.90;;;;;;5042727;28;20105;-91
2021/04/23 01:34:08;;;;;;;17.33;4.38;;;2.20;99.90;;;;;;5040219;28;20050;-89
2021/04/23 01:36:38;;;;;;;12.82;4.82;;;2.20;99.90;;;;;;5036034;28;20528;-90
2021/04/23 01:39:11;;;;;;;9.40;3.88;;;2.20;99.90;;;;;;5031444;28;20087;-89
2021/04/23 01:41:42;;;;;;;11.60;3.90;;;2.20;99.90;;;;;;5036628;28;20053;-89
2021/04/23 01:44:10;;;;;;;12.93;3.58;;;2.20;99.90;;;;;;5030775;28;20070;-89
2021/04/23 01:46:38;;;;;;;10.60;3.58;;;2.20;99.90;;;;;;5015438;28;20077;-89
2021/04/23 01:49:10;;;;;;;13.73;4.75;;;2.10;99.90;;;;;;5033882;28;20419;-90
2021/04/23 01:51:38;;;;;;;11.52;5.15;;;2.10;99.90;;;;;;5027898;28;20074;-89
2021/04/23 01:54:06;;;;;;;12.10;4.88;;;2.00;99.90;;;;;;5030331;28;20046;-90
2021/04/23 01:56:34;;;;;;;9.73;4.72;;;1.90;99.90;;;;;;5038256;28;20489;-90
2021/04/23 01:59:04;;;;;;;14.55;5.65;;;1.80;99.90;;;;;;5007095;28;20066;-90
2021/04/23 02:01:31;;;;;;;12.93;5.32;;;1.70;99.90;;;;;;5041181;28;20077;-90
2021/04/23 02:04:00;;;;;;;16.77;5.45;;;1.70;99.90;;;;;;5042335;28;20115;-88
2021/04/23 02:06:26;;;;;;;15.18;5.28;;;1.60;99.90;;;;;;5020441;28;20121;-89
2021/04/23 02:08:53;;;;;;;14.77;5.47;;;1.60;99.90;;;;;;5014423;28;20109;-89
2021/04/23 02:11:20;;;;;;;11.93;5.70;;;1.60;99.90;;;;;;5033691;28;20128;-90
2021/04/23 02:13:49;;;;;;;11.38;5.43;;;1.60;99.90;;;;;;5034055;28;20127;-89
2021/04/23 02:16:17;;;;;;;15.98;5.00;;;1.60;99.90;;;;;;5029654;28;20056;-89
2021/04/23 02:18:49;;;;;;;15.90;5.43;;;1.60;99.90;;;;;;5032858;28;20054;-89
2021/04/23 02:21:16;;;;;;;15.90;5.00;;;1.50;99.90;;;;;;5024672;28;20453;-88
2021/04/23 02:23:46;;;;;;;12.73;5.47;;;1.50;99.90;;;;;;5015829;28;20128;-88
2021/04/23 02:26:14;;;;;;;20.25;5.93;;;1.50;99.90;;;;;;5015121;28;20041;-90
2021/04/23 02:28:43;;;;;;;12.55;5.50;;;1.40;99.90;;;;;;4994944;28;20373;-90
2021/04/23 02:31:16;;;;;;;14.88;5.88;;;1.30;99.90;;;;;;5032874;28;20363;-89
2021/04/23 02:33:47;;;;;;;13.80;5.28;;;1.30;99.90;;;;;;5033326;28;20063;-89
2021/04/23 02:36:15;;;;;;;15.73;6.03;;;1.30;99.90;;;;;;5025504;28;20433;-90
2021/04/23 02:38:43;;;;;;;14.45;5.43;;;1.30;99.90;;;;;;5016992;28;20084;-88
2021/04/23 02:41:11;;;;;;;7.55;5.38;;;1.30;99.90;;;;;;5024572;28;20516;-89
2021/04/23 02:43:42;;;;;;;13.30;5.40;;;1.20;99.90;;;;;;5009922;28;20180;-88
2021/04/23 02:46:09;;;;;;;13.52;5.57;;;1.20;99.90;;;;;;5008027;28;20105;-91
2021/04/23 02:48:39;;;;;;;13.23;5.10;;;1.20;99.90;;;;;;5012263;28;20077;-87
2021/04/23 02:51:13;;;;;;;15.98;5.78;;;1.10;99.90;;;;;;5012656;28;20127;-88
2021/04/23 02:53:41;;;;;;;15.68;5.75;;;1.10;99.90;;;;;;5014610;28;20053;-88
2021/04/23 02:56:09;;;;;;;15.70;5.68;;;1.10;99.90;;;;;;5030174;28;20073;-88
2021/04/23 02:58:36;;;;;;;10.38;5.50;;;1.20;99.90;;;;;;5011314;28;20045;-89
2021/04/23 03:01:09;;;;;;;22.42;6.25;;;1.10;99.90;;;;;;5025214;28;20471;-89
2021/04/23 03:03:36;;;;;;;16.70;5.88;;;1.10;99.90;;;;;;5034384;28;20041;-89
2021/04/23 03:06:03;;;;;;;10.52;5.30;;;1.10;99.90;;;;;;5015402;28;20151;-89
2021/04/23 03:08:32;;;;;;;20.30;6.28;;;1.10;99.90;;;;;;5034124;28;20189;-89
2021/04/23 03:11:11;;;;;;;14.98;6.40;;;1.10;99.90;;;;;;5035027;28;20091;-90
2021/04/23 03:13:40;;;;;;;17.67;6.40;;;1.00;99.90;;;;;;5011832;28;20081;-88
2021/04/23 03:16:07;;;;;;;13.63;6.10;;;1.00;99.90;;;;;;5024671;28;20050;-89
2021/04/23 03:18:36;;;;;;;12.18;5.75;;;0.90;99.90;;;;;;5021049;28;20045;-90
2021/04/23 03:21:05;;;;;;;17.08;6.18;;;0.90;99.90;;;;;;5032338;28;20068;-90
2021/04/23 03:23:32;;;;;;;16.63;6.18;;;0.80;99.90;;;;;;5007971;28;20144;-89
2021/04/23 03:26:00;;;;;;;13.38;5.95;;;0.80;99.90;;;;;;5020975;28;20092;-90
2021/04/23 03:28:27;;;;;;;19.58;6.68;;;0.80;99.90;;;;;;5046521;28;20530;-90
2021/04/23 03:30:53;;;;;;;13.80;6.30;;;0.80;99.90;;;;;;5049041;28;20099;-89
2021/04/23 03:33:21;;;;;;;19.10;6.32;;;0.80;99.90;;;;;;5029758;28;20140;-90
2021/04/23 03:35:50;;;;;;;17.45;5.90;;;0.70;99.90;;;;;;5017145;28;20049;-89
2021/04/23 03:38:21;;;;;;;15.68;5.47;;;0.70;99.90;;;;;;5035776;28;20068;-89
2021/04/23 03:40:48;;;;;;;19.10;6.60;;;0.70;99.90;;;;;;5018641;28;20080;-90
2021/04/23 03:43:14;;;;;;;24.25;6.55;;;0.70;99.90;;;;;;5036265;28;20535;-87
2021/04/23 03:45:41;;;;;;;14.40;6.25;;;0.70;99.90;;;;;;5014561;28;20048;-90
2021/04/23 03:48:08;;;;;;;14.88;5.85;;;0.70;99.90;;;;;;5032367;28;20073;-89
2021/04/23 03:50:37;;;;;;;15.20;6.70;;;0.70;99.90;;;;;;5039058;28;20071;-90
2021/04/23 03:53:10;;;;;;;17.33;6.18;;;0.70;99.90;;;;;;5032009;28;20513;-90
2021/04/23 03:55:41;;;;;;;15.48;5.90;;;0.70;99.90;;;;;;5033401;28;20157;-89
2021/04/23 03:58:08;;;;;;;11.65;6.10;;;0.70;99.90;;;;;;5023848;28;20052;-89
2021/04/23 04:00:41;;;;;;;23.20;6.68;;;0.70;99.90;;;;;;5007921;28;20041;-89
2021/04/23 04:03:08;;;;;;;15.70;5.97;;;0.70;99.90;;;;;;5035770;28;20056;-89
2021/04/23 04:05:35;;;;;;;15.52;5.70;;;0.70;99.90;;;;;;5026585;28;20125;-90
2021/04/23 04:08:07;;;;;;;17.27;7.05;;;0.70;99.90;;;;;;5031776;28;20085;-90
2021/04/23 04:10:35;;;;;;;;;;;0.60;99.90;;;;;;5030968;28;20049;-90
2021/04/23 04:13:02;;;;;;;13.55;5.93;;;0.50;99.90;;;;;;5016035;28;20008;-90
2021/04/23 04:15:31;;;;;;;11.68;6.28;;;0.50;99.90;;;;;;5032471;28;20042;-91
2021/04/23 04:17:58;;;;;;;15.23;6.55;;;0.40;99.90;;;;;;5024708;28;20419;-90
2021/04/23 04:20:32;;;;;;;15.20;6.45;;;0.40;99.90;;;;;;5028125;28;20042;-89
2021/04/23 04:23:05;;;;;;;18.70;6.57;;;0.50;99.90;;;;;;5008481;28;20125;-87
2021/04/23 04:25:38;;;;;;;17.90;6.78;;;0.50;99.90;;;;;;5016125;28;20054;-87
2021/04/23 04:28:31;;;;;;;20.08;6.10;;;0.50;99.90;;;;;;5024672;28;20438;-88
2021/04/23 04:31:02;;;;;;;12.75;5.60;;;0.50;99.90;;;;;;5004656;28;20128;-89
2021/04/23 04:33:47;;;;;;;12.15;5.68;;;0.50;99.90;;;;;;5030893;28;20038;-89
2021/04/23 04:36:14;;;;;;;12.85;5.57;;;0.50;99.90;;;;;;5010002;28;20535;-87
2021/04/23 04:38:40;;;;;;;18.65;7.35;;;0.50;99.90;;;;;;5006850;28;20426;-87
2021/04/23 04:41:09;;;;;;;25.73;7.68;;;0.50;99.90;;;;;;5033285;28;20057;-88
2021/04/23 04:43:35;;;;;;;25.83;6.68;;;0.50;99.90;;;;;;5009051;28;20057;-89
2021/04/23 04:46:25;;;;;;;16.00;6.15;;;0.60;99.90;;;;;;5015764;28;20073;-89
2021/04/23 04:48:54;;;;;;;14.60;6.45;;;0.50;99.90;;;;;;5013355;28;20067;-90
2021/04/23 04:51:27;;;;;;;17.95;7.93;;;0.60;99.90;;;;;;5036912;28;20054;-89
2021/04/23 04:53:54;;;;;;;19.33;8.60;;;0.60;99.90;;;;;;5028194;28;20045;-88
2021/04/23 04:56:26;;;;;;;21.60;8.23;;;0.60;99.90;;;;;;5014711;28;20065;-88
2021/04/23 04:59:19;;;;;;;20.58;7.72;;;0.60;99.90;;;;;;5018009;28;20053;-89
2021/04/23 05:01:54;;;;;;;20.35;7.60;;;0.70;99.90;;;;;;5016596;28;20131;-89
2021/04/23 05:04:23;;;;;;;27.73;10.35;;;0.70;99.90;;;;;;5034530;28;20049;-90
2021/04/23 05:06:50;;;;;;;25.55;10.55;;;0.80;99.90;;;;;;5018727;28;20053;-90
2021/04/23 05:09:16;;;;;;;29.60;10.70;;;0.90;99.90;;;;;;5025791;28;20072;-90
2021/04/23 05:11:58;;;;;;;29.23;11.30;;;1.00;99.90;;;;;;5047583;28;20120;-91
2021/04/23 05:14:24;;;;;;;22.08;10.73;;;1.20;99.90;;;;;;5038042;28;20107;-90
2021/04/23 05:16:56;;;;;;;22.98;8.27;;;1.30;99.90;;;;;;5022613;28;20133;-92
2021/04/23 05:19:36;;;;;;;;;;;;;;;;;;;;;
2021/04/23 05:22:05;;;;;;;;;;;1.60;99.90;;;;;;5019649;28;20061;-91
2021/04/23 05:24:41;;;;;;;23.27;8.40;;;1.70;99.90;;;;;;5002678;28;19936;-93
2021/04/23 05:27:08;;;;;;;21.38;7.35;;;1.80;99.90;;;;;;5051629;28;20048;-92
2021/04/23 05:29:36;;;;;;;19.75;6.88;;;1.90;99.90;;;;;;5016982;28;20435;-90
2021/04/23 05:32:03;;;;;;;19.60;7.75;;;2.10;99.90;;;;;;5027148;28;20081;-92
2021/04/23 05:34:33;;;;;;;23.73;7.20;;;2.20;99.90;;;;;;5027078;28;20111;-91
2021/04/23 05:37:08;;;;;;;18.10;7.15;;;2.40;99.90;;;;;;5028740;28;20049;-91
2021/04/23 05:39:45;;;;;;;24.15;7.13;;;2.60;99.90;;;;;;5046338;28;20046;-90
2021/04/23 05:42:14;;;;;;;20.73;6.95;;;2.80;99.90;;;;;;5018896;28;20446;-88
2021/04/23 05:44:41;;;;;;;19.95;6.53;;;3.00;99.90;;;;;;5012612;28;20042;-87
2021/04/23 05:47:08;;;;;;;16.55;7.07;;;3.20;99.90;;;;;;5010275;28;20061;-87
2021/04/23 05:49:53;;;;;;;10.98;6.70;;;3.40;99.90;;;;;;4992553;28;20080;-82
2021/04/23 05:52:19;;;;;;;17.23;6.57;;;3.80;99.90;;;;;;4992551;28;20041;-83
2021/04/23 05:54:48;;;;;;;15.18;6.72;;;4.10;99.90;;;;;;5010846;28;20069;-83
2021/04/23 05:57:14;;;;;;;18.15;7.18;;;4.30;99.90;;;;;;5031486;28;20074;-84
2021/04/23 05:59:41;;;;;;;17.92;6.63;;;4.60;99.90;;;;;;5031901;28;20045;-84
2021/04/23 06:02:08;;;;;;;18.77;7.28;;;4.80;99.90;;;;;;5031882;28;20141;-84
2021/04/23 06:04:43;;;;;;;14.20;6.30;;;5.10;99.90;;;;;;4996657;28;20038;-83
2021/04/23 06:07:10;;;;;;;14.63;5.68;;;5.40;99.70;;;;;;5000491;28;20113;-83
2021/04/23 06:09:36;;;;;;;13.52;4.93;;;5.70;96.80;;;;;;4998379;28;20057;-84
2021/04/23 06:12:03;;;;;;;16.45;5.95;;;6.10;95.10;;;;;;5029206;28;20115;-84
2021/04/23 06:14:35;;;;;;;11.70;5.25;;;6.60;90.20;;;;;;5013210;28;20136;-84
2021/04/23 06:17:04;;;;;;;14.65;6.00;;;7.00;86.80;;;;;;5012071;28;20053;-84
2021/04/23 06:19:34;;;;;;;13.00;5.78;;;7.50;84.10;;;;;;4992985;28;20069;-84
2021/04/23 06:22:01;;;;;;;13.05;5.45;;;7.60;79.90;;;;;;4997879;28;20461;-85
2021/04/23 06:24:53;;;;;;;20.17;5.25;;;7.60;79.20;;;;;;5012920;28;20049;-83
2021/04/23 06:27:51;;;;;;;12.55;5.30;;;8.00;76.20;;;;;;4999471;28;21727;-84
2021/04/23 06:30:35;;;;;;;15.25;4.95;;;8.30;73.00;;;;;;4962497;28;20137;-82
2021/04/23 06:33:27;;;;;;;18.00;5.45;;;8.40;72.90;;;;;;5034590;28;20041;-90
2021/04/23 06:35:55;;;;;;;13.80;4.93;;;8.90;69.80;;;;;;5033531;28;20140;-90
2021/04/23 06:38:37;;;;;;;13.27;4.78;;;9.10;66.80;;;;;;5034975;28;20057;-90
2021/04/23 06:41:04;;;;;;;10.97;4.50;;;9.20;65.90;;;;;;5006157;28;20053;-92
2021/04/23 06:43:31;;;;;;;14.63;5.30;;;9.60;64.70;;;;;;5032893;28;20041;-91
2021/04/23 06:45:59;;;;;;;16.70;5.05;;;10.10;63.00;;;;;;5032762;28;20049;-90
2021/04/23 06:48:33;;;;;;;12.75;5.03;;;10.30;60.60;;;;;;5032379;28;20054;-91
2021/04/23 06:51:03;;;;;;;12.70;5.05;;;10.40;61.40;;;;;;5023429;28;20442;-92
2021/04/23 06:53:33;;;;;;;23.02;5.25;;;10.60;59.30;;;;;;5014446;28;20084;-92
2021/04/23 06:56:02;;;;;;;11.13;4.47;;;10.60;58.90;;;;;;5014220;28;20069;-91
2021/04/23 06:58:30;;;;;;;17.50;5.50;;;10.80;58.50;;;;;;5012372;28;20103;-91
2021/04/23 07:00:57;;;;;;;17.52;4.90;;;10.90;61.00;;;;;;5032975;28;20493;-91
2021/04/23 07:03:23;;;;;;;14.15;4.85;;;11.10;60.50;;;;;;5015340;28;20049;-89
2021/04/23 07:05:54;;;;;;;16.50;4.95;;;10.90;60.50;;;;;;5016358;28;20079;-90
2021/04/23 07:08:20;;;;;;;11.07;3.88;;;10.90;59.70;;;;;;5020301;28;20054;-90
2021/04/23 07:10:49;;;;;;;13.93;4.50;;;11.10;58.70;;;;;;5015195;28;20080;-93
2021/04/23 07:13:16;;;;;;;13.10;4.32;;;11.60;57.90;;;;;;5010792;28;20133;-91
2021/04/23 07:15:45;;;;;;;10.05;4.13;;;12.00;59.10;;;;;;4993146;28;20053;-90
2021/04/23 07:18:11;;;;;;;11.70;4.43;;;12.10;56.90;;;;;;5028758;28;20451;-90
2021/04/23 07:20:43;;;;;;;12.85;4.22;;;12.40;55.50;;;;;;4999703;28;20164;-92
2021/04/23 07:23:11;;;;;;;10.73;4.45;;;12.50;55.20;;;;;;5016055;28;20088;-90
2021/04/23 07:25:38;;;;;;;15.32;4.57;;;12.60;54.40;;;;;;4997853;28;20041;-90
2021/04/23 07:28:05;;;;;;;14.77;4.82;;;12.50;55.60;;;;;;5034971;28;20136;-90
2021/04/23 07:30:36;;;;;;;17.90;4.40;;;12.40;54.30;;;;;;5016022;28;20057;-91
2021/04/23 07:33:05;;;;;;;17.73;4.55;;;12.50;55.20;;;;;;5033033;28;20055;-90
2021/04/23 07:35:33;;;;;;;12.80;4.18;;;12.50;55.10;;;;;;5032093;28;20046;-92
2021/04/23 07:38:02;;;;;;;12.43;4.43;;;12.80;53.80;;;;;;5036321;28;20037;-91
2021/04/23 07:40:30;;;;;;;10.35;4.47;;;13.00;53.10;;;;;;5013982;28;20053;-90
2021/04/23 07:43:00;;;;;;;12.48;4.93;;;13.20;53.80;;;;;;5031427;28;20136;-90
2021/04/23 07:45:47;;;;;;;13.40;4.88;;;13.30;53.70;;;;;;5022465;28;21539;-86
2021/04/23 07:48:13;;;;;;;11.50;4.13;;;13.50;53.40;;;;;;5035531;28;20107;-90
2021/04/23 07:50:40;;;;;;;11.82;4.25;;;13.90;52.60;;;;;;5032550;28;20347;-88
2021/04/23 07:53:08;;;;;;;19.92;5.13;;;14.00;52.10;;;;;;5031168;28;20053;-88
2021/04/23 07:55:39;;;;;;;16.45;4.70;;;14.00;52.20;;;;;;5011822;28;20050;-87
2021/04/23 07:58:09;;;;;;;13.48;4.68;;;14.50;51.10;;;;;;5007426;28;20065;-88
2021/04/23 08:00:36;;;;;;;16.60;4.40;;;14.90;49.30;;;;;;5030824;28;20195;-89
2021/04/23 08:03:02;;;;;;;17.20;4.88;;;15.40;49.00;;;;;;5009774;28;20082;-89
2021/04/23 08:05:30;;;;;;;15.25;4.55;;;15.50;48.00;;;;;;5025411;28;20072;-88
2021/04/23 08:08:01;;;;;;;14.90;4.93;;;15.60;48.10;;;;;;5027507;28;20045;-90
2021/04/23 08:10:30;;;;;;;15.68;4.72;;;16.00;47.30;;;;;;5011425;28;20055;-88
2021/04/23 08:12:57;;;;;;;13.05;4.57;;;15.70;50.30;;;;;;5024814;28;20484;-89
2021/04/23 08:15:26;;;;;;;17.73;5.68;;;15.60;46.40;;;;;;5034071;28;20332;-88
2021/04/23 08:17:56;;;;;;;16.02;4.70;;;15.30;48.80;;;;;;5016841;28;20502;-88
2021/04/23 08:20:27;;;;;;;15.63;4.70;;;15.80;47.60;;;;;;5033604;28;20049;-89
2021/04/23 08:22:54;;;;;;;14.38;4.28;;;15.70;47.80;;;;;;5037477;28;20053;-91
2021/04/23 08:25:30;;;;;;;15.68;4.78;;;16.30;47.50;;;;;;5017216;28;20108;-93
2021/04/23 08:27:56;;;;;;;18.92;4.78;;;17.00;44.60;;;;;;5017946;28;20049;-91
2021/04/23 08:30:37;;;;;;;22.60;4.30;;;16.80;43.70;;;;;;5038698;28;20060;-92
2021/04/23 08:33:04;;;;;;;14.18;5.15;;;16.70;45.40;;;;;;5010887;28;20123;-91
2021/04/23 08:35:34;;;;;;;10.80;4.45;;;16.70;44.90;;;;;;5017266;28;20072;-91
2021/04/23 08:38:06;;;;;;;14.90;5.35;;;16.50;45.90;;;;;;5019078;28;20145;-90
2021/04/23 08:40:32;;;;;;;15.98;4.85;;;16.50;46.10;;;;;;5032798;28;20056;-88
2021/04/23 08:42:59;;;;;;;16.80;5.38;;;16.40;45.30;;;;;;5002175;28;20049;-91
2021/04/23 08:45:25;;;;;;;15.27;4.80;;;16.80;43.70;;;;;;5028675;28;20053;-89
2021/04/23 08:47:52;;;;;;;17.08;4.80;;;16.90;43.40;;;;;;5024679;28;20061;-89
2021/04/23 08:50:29;;;;;;;17.33;5.45;;;16.90;44.10;;;;;;5027152;28;20049;-90
2021/04/23 08:52:58;;;;;;;17.15;4.97;;;16.90;41.90;;;;;;5044139;28;20057;-93
2021/04/23 08:55:26;;;;;;;11.13;4.18;;;16.50;41.80;;;;;;5023523;28;20046;-92
2021/04/23 08:58:14;;;;;;;12.95;4.63;;;16.90;45.10;;;;;;5042800;28;20250;-89
2021/04/23 09:00:42;;;;;;;14.13;4.28;;;16.90;43.70;;;;;;5022891;28;20049;-91
2021/04/23 09:03:11;;;;;;;12.93;4.32;;;17.20;42.30;;;;;;5040887;28;20042;-89
2021/04/23 09:05:38;;;;;;;11.50;4.53;;;17.20;42.70;;;;;;5024068;28;20049;-89
2021/04/23 09:08:11;;;;;;;13.85;4.47;;;17.40;42.40;;;;;;5017239;28;20050;-89
2021/04/23 09:10:38;;;;;;;;;;;17.20;41.50;;;;;;5030252;28;20139;-87
2021/04/23 09:13:14;;;;;;;14.43;4.47;;;17.70;40.10;;;;;;5012905;28;19951;-88
2021/04/23 09:15:46;;;;;;;15.23;4.50;;;17.80;40.60;;;;;;5017969;28;20119;-88
2021/04/23 09:18:21;;;;;;;10.45;4.32;;;18.40;39.90;;;;;;5034454;28;20041;-89
2021/04/23 09:21:00;;;;;;;14.35;4.40;;;18.80;39.90;;;;;;5014876;28;20093;-90
2021/04/23 09:23:46;;;;;;;14.95;4.65;;;19.20;39.60;;;;;;5015872;28;20041;-89
2021/04/23 09:26:34;;;;;;;16.77;5.65;;;19.70;37.00;;;;;;5015929;28;20109;-89
2021/04/23 09:29:03;;;;;;;11.18;4.72;;;19.80;34.80;;;;;;5032358;28;20404;-91
2021/04/23 09:31:34;;;;;;;14.98;4.95;;;19.70;35.20;;;;;;5027859;28;20148;-90
2021/04/23 09:34:04;;;;;;;12.35;4.13;;;19.30;35.20;;;;;;5031443;28;20062;-91
2021/04/23 09:36:40;;;;;;;14.32;4.43;;;19.00;35.60;;;;;;5028691;28;20053;-91
2021/04/23 09:39:36;;;;;;;11.75;4.68;;;18.80;37.60;;;;;;5012039;28;20486;-90
2021/04/23 09:42:08;;;;;;;11.80;4.88;;;19.10;36.50;;;;;;5010192;28;20050;-92
2021/04/23 09:44:48;;;;;;;12.98;4.95;;;18.20;36.40;;;;;;5015148;28;20057;-92
2021/04/23 09:47:23;;;;;;;15.20;5.03;;;17.60;39.50;;;;;;5016003;28;20038;-90
2021/04/23 09:49:56;;;;;;;12.73;4.72;;;17.90;39.40;;;;;;5034216;28;20107;-89
2021/04/23 09:52:34;;;;;;;16.08;6.32;;;19.20;39.90;;;;;;5033979;28;20426;-89
2021/04/23 09:55:04;;;;;;;15.75;5.82;;;19.60;39.80;;;;;;5033977;28;20045;-89
2021/04/23 09:57:39;;;;;;;13.35;5.45;;;20.30;37.50;;;;;;5017519;28;20045;-91
2021/04/23 10:00:11;;;;;;;9.68;4.75;;;20.30;37.90;;;;;;5026666;28;20495;-89
2021/04/23 10:02:40;;;;;;;12.40;5.03;;;21.10;35.00;;;;;;5017982;28;20041;-88
2021/04/23 10:05:08;;;;;;;12.25;4.93;;;21.40;36.00;;;;;;5024093;28;20049;-89
2021/04/23 10:07:35;;;;;;;12.82;4.90;;;21.20;35.40;;;;;;4997318;28;20526;-88
2021/04/23 10:10:11;;;;;;;12.10;4.78;;;21.40;37.20;;;;;;5016412;28;20049;-90
2021/04/23 10:13:03;;;;;;;14.27;4.97;;;22.20;32.40;;;;;;5017131;28;20049;-89
2021/04/23 10:15:43;;;;;;;13.18;4.47;;;22.50;31.60;;;;;;5037853;28;20045;-89
2021/04/23 10:18:14;;;;;;;16.30;5.72;;;22.50;33.60;;;;;;5015802;28;20406;-87
2021/04/23 10:20:46;;;;;;;12.05;5.03;;;21.90;32.80;;;;;;5028981;28;20042;-91
2021/04/23 10:23:15;;;;;;;12.20;5.38;;;20.80;34.00;;;;;;5012543;28;20049;-84
2021/04/23 10:25:46;;;;;;;11.73;5.50;;;21.10;32.70;;;;;;5013261;28;20064;-91
2021/04/23 10:28:18;;;;;;;12.10;5.72;;;21.20;35.90;;;;;;5033825;28;20068;-91
2021/04/23 10:30:52;;;;;;;17.60;5.95;;;21.20;36.80;;;;;;5010637;28;20053;-94
2021/04/23 10:33:22;;;;;;;13.50;5.55;;;20.70;35.00;;;;;;5037863;28;20081;-92
2021/04/23 10:36:04;;;;;;;11.95;5.68;;;20.50;35.10;;;;;;5024555;28;20493;-94
2021/04/23 10:39:10;;;;;;;14.20;6.07;;;20.40;34.40;;;;;;5034294;28;20049;-92
2021/04/23 10:41:54;;;;;;;16.67;5.82;;;21.00;35.50;;;;;;5013263;28;20131;-91
2021/04/23 10:45:43;;;;;;;12.70;5.80;;;22.10;32.20;;;;;;5023112;28;20041;-92
2021/04/23 10:48:56;;;;;;;13.85;5.47;;;21.80;33.90;;;;;;4999580;28;20140;-91
2021/04/23 10:55:47;;;;;;;13.90;5.32;;;21.60;34.30;;;;;;4889753;29;20342;-91
2021/04/23 10:58:50;;;;;;;14.45;6.30;;;21.80;34.60;;;;;;4859267;29;20057;-93
2021/04/23 11:05:37;;;;;;;14.27;6.15;;;21.50;33.00;;;;;;4769459;30;20065;-92
2021/04/23 11:08:09;;;;;;;13.70;5.90;;;21.40;34.90;;;;;;4797972;29;20174;-90
2021/04/23 11:11:01;;;;;;;11.48;6.07;;;21.40;32.50;;;;;;4797775;29;20074;-93
2021/04/23 11:13:36;;;;;;;16.08;6.38;;;21.60;33.50;;;;;;4798724;29;20051;-90
2021/04/23 11:16:30;;;;;;;14.65;6.30;;;21.40;33.50;;;;;;4884192;29;20052;-90
2021/04/23 11:19:37;;;;;;;17.55;7.15;;;21.80;31.80;;;;;;4927243;29;20197;-92
2021/04/23 11:23:04;;;;;;;16.95;6.57;;;22.00;30.60;;;;;;4932256;29;20110;-88
2021/04/23 11:25:16;;;;;;;14.38;6.85;;;22.10;31.60;;;;;;4931371;28;20159;-90
2021/04/23 11:28:10;;;;;;;13.77;6.35;;;23.20;30.60;;;;;;4970018;28;20078;-90
2021/04/23 11:31:07;;;;;;;17.88;6.88;;;22.40;32.70;;;;;;4986567;28;20142;-89
2021/04/23 11:34:04;;;;;;;15.32;6.97;;;22.10;32.80;;;;;;4984469;28;20059;-88
2021/04/23 11:36:40;;;;;;;;;;;22.30;30.60;;;;;;4985944;28;20065;-90
2021/04/23 11:39:10;;;;;;;15.52;5.80;;;22.80;29.40;;;;;;4952439;28;19922;-89
2021/04/23 11:41:40;;;;;;;14.45;5.97;;;23.00;33.00;;;;;;4953300;28;20408;-90
2021/04/23 11:44:46;;;;;;;15.55;5.65;;;22.50;29.40;;;;;;4971240;28;20070;-90
2021/04/23 11:47:16;;;;;;;11.82;5.22;;;22.70;29.80;;;;;;4983174;28;20047;-83
2021/04/23 11:49:43;;;;;;;10.40;5.00;;;22.50;30.00;;;;;;4977368;28;20069;-84
2021/04/23 11:52:10;;;;;;;11.18;4.95;;;22.60;29.00;;;;;;4978910;28;20081;-82
2021/04/23 11:54:46;;;;;;;11.80;4.85;;;22.60;27.80;;;;;;4980736;28;20058;-84
2021/04/23 11:57:14;;;;;;;13.65;4.75;;;23.50;26.80;;;;;;4964619;28;20082;-82
2021/04/23 11:59:58;;;;;;;8.93;4.00;;;24.20;28.10;;;;;;4956904;28;20050;-83
2021/04/23 12:02:37;;;;;;;14.88;5.47;;;24.10;27.50;;;;;;4963807;28;20431;-89
2021/04/23 12:05:04;;;;;;;10.18;4.30;;;23.60;27.40;;;;;;4974315;28;20047;-90
2021/04/23 12:07:45;;;;;;;13.25;5.00;;;23.40;27.20;;;;;;4973005;28;20121;-87
2021/04/23 12:10:15;;;;;;;10.63;4.75;;;23.80;27.60;;;;;;4953755;28;20130;-87
2021/04/23 12:12:44;;;;;;;9.57;4.40;;;24.10;24.80;;;;;;4968421;28;20051;-90
2021/04/23 12:15:44;;;;;;;10.05;4.15;;;23.70;25.20;;;;;;4982557;28;20057;-87
2021/04/23 12:18:16;;;;;;;10.25;4.13;;;23.30;25.60;;;;;;4950456;28;20477;-90
2021/04/23 12:20:45;;;;;;;8.88;4.13;;;23.70;24.90;;;;;;4971321;28;20088;-88
2021/04/23 12:23:35;;;;;;;8.77;3.80;;;24.60;26.10;;;;;;4958579;28;20054;-87
2021/04/23 12:26:06;;;;;;;9.57;3.53;;;25.00;25.20;;;;;;4984619;28;20062;-87
2021/04/23 12:28:47;;;;;;;8.77;3.38;;;24.30;25.70;;;;;;4974566;28;20130;-87
2021/04/23 12:31:22;;;;;;;8.63;3.65;;;25.70;23.10;;;;;;4958459;28;20058;-87
2021/04/23 12:33:50;;;;;;;9.25;3.25;;;24.70;22.70;;;;;;4974052;28;20113;-88
2021/04/23 12:36:36;;;;;;;9.35;3.90;;;25.10;23.90;;;;;;4954891;28;20054;-89
2021/04/23 12:39:27;;;;;;;12.18;4.43;;;24.60;23.50;;;;;;4971490;28;20138;-91
2021/04/23 12:41:56;;;;;;;7.63;3.70;;;23.40;26.10;;;;;;4972884;28;20046;-89
2021/04/23 12:44:35;;;;;;;8.88;3.80;;;23.90;23.00;;;;;;4987270;28;20043;-90
2021/04/23 12:47:05;;;;;;;12.35;4.10;;;24.30;22.50;;;;;;4974898;28;20054;-89
2021/04/23 12:49:36;;;;;;;8.05;3.65;;;24.10;22.80;;;;;;4963012;28;20051;-89
2021/04/23 12:52:20;;;;;;;7.35;3.40;;;24.80;24.60;;;;;;4982988;28;20074;-89
2021/04/23 12:54:50;;;;;;;6.90;3.35;;;25.10;24.30;;;;;;4988731;28;20059;-89
2021/04/23 12:57:38;;;;;;;8.27;3.88;;;25.30;25.20;;;;;;4991248;28;20453;-87
2021/04/23 13:00:10;;;;;;;6.88;4.10;;;25.20;24.50;;;;;;4961560;28;20134;-89
2021/04/23 13:02:39;;;;;;;8.55;4.13;;;25.20;22.20;;;;;;4957938;28;20047;-89
2021/04/23 13:05:14;;;;;;;7.80;3.70;;;25.50;22.60;;;;;;4958443;28;20421;-89
2021/04/23 13:07:47;;;;;;;7.03;3.70;;;25.60;24.00;;;;;;4974734;28;20058;-87
2021/04/23 13:10:15;;;;;;;10.43;3.78;;;25.80;24.50;;;;;;4961460;28;20134;-90
2021/04/23 13:12:43;;;;;;;10.40;4.07;;;25.40;23.50;;;;;;4974395;28;20129;-87
2021/04/23 13:15:29;;;;;;;7.30;3.72;;;24.70;22.60;;;;;;4974378;28;20158;-90
2021/04/23 13:17:58;;;;;;;7.43;3.65;;;24.90;23.00;;;;;;4974061;28;20074;-87
2021/04/23 13:20:29;;;;;;;9.65;4.15;;;24.50;24.70;;;;;;4965091;28;20081;-88
2021/04/23 13:23:03;;;;;;;11.20;4.00;;;23.70;25.40;;;;;;4974275;28;20133;-89